Flight Track Log - Related Links

Times and Time Zones

All times are in EDT time to prevent confusion due to time zone crossing. See the FFT784 flight status page for this flight to view local times or setup timezone preferences in your user account.

Time Position Orientation Groundspeed Altitude Reporting Facility
EDT Latitude Longitude Course Direction KTS MPH feet Rate Location/Type
Wed 03:17:12 PM 36.1033 -115.1539 40° Northeast 147 169 3,200  Level Los Angeles Center
Wed 03:18:01 PM 36.1297 -115.1267 40° Northeast 184 212 4,200 1,269 Climbing Los Angeles Center
Wed 03:18:56 PM 36.1372 -115.0522 83° East 239 275 5,400 1,948 Climbing Los Angeles Center
Wed 03:19:18 PM 36.1400 -115.0153 85° East 252 290 6,700 2,714 Climbing Los Angeles Center
Wed 03:20:20 PM 36.1497 -114.9231 83° East 267 307 9,200 2,226 Climbing Los Angeles Center
Wed 03:21:22 PM 36.1589 -114.8253 83° East 280 322 11,300 1,742 Climbing Los Angeles Center
Wed 03:22:24 PM 36.1844 -114.7219 73° East 305 351 12,800 1,694 Climbing Los Angeles Center
Wed 03:23:26 PM 36.1894 -114.5969 87° East 357 411 14,800 1,839 Climbing Los Angeles Center
Wed 03:24:28 PM 36.1906 -114.4664 89° East 373 429 16,600 1,694 Climbing Los Angeles Center
Wed 03:25:30 PM 36.1928 -114.2992 89° East 397 457 18,300 1,548 Climbing Los Angeles Center
Wed 03:26:32 PM 36.2036 -114.1511 85° East 424 488 19,800 1,355 Climbing Los Angeles Center
Wed 03:27:34 PM 36.2219 -114.0003 81° East 438 504 21,100 1,355 Climbing Los Angeles Center
Wed 03:28:36 PM 36.2403 -113.8439 82° East 451 519 22,600 1,355 Climbing Los Angeles Center
Wed 03:29:38 PM 36.2586 -113.6875 82° East 458 527 23,900 1,152 Climbing Los Angeles Center
Wed 03:30:41 PM 36.2781 -113.5275 81° East 466 536 25,000 1,152 Climbing Los Angeles Center
Wed 03:31:43 PM 36.3000 -113.3303 82° East 478 550 26,300 1,161 Climbing Los Angeles Center
Wed 03:32:45 PM 36.3317 -113.1653 77° East 486 559 27,400 919 Climbing Los Angeles Center
Wed 03:33:47 PM 36.3892 -113.0164 64° Northeast 484 557 28,200 823 Climbing Los Angeles Center
Wed 03:34:49 PM 36.4464 -112.8653 65° Northeast 483 556 29,100 871 Climbing Los Angeles Center
Wed 03:35:51 PM 36.5031 -112.7097 66° East 487 560 30,000 1,113 Climbing Los Angeles Center
Wed 03:36:53 PM 36.5722 -112.5219 65° Northeast 495 570 31,400 1,152 Climbing Los Angeles Center
Wed 03:37:56 PM 36.6281 -112.3667 66° East 495 570 32,400 768 Climbing Los Angeles Center
Wed 03:38:58 PM 36.6836 -112.2128 66° East 492 566 33,000 290 Climbing Los Angeles Center
Wed 03:40:00 PM 36.7394 -112.0589 66° East 491 565 33,000  Level Los Angeles Center
Wed 03:40:18 PM 36.7622 -111.9972 65° Northeast 492 566 33,000  Level Denver Center
Wed 03:41:19 PM 36.8175 -111.8425 66° East 491 565 33,000  Level Denver Center
Wed 03:42:21 PM 36.8736 -111.6867 66° East 493 567 33,000  Level Denver Center
Wed 03:43:23 PM 36.9289 -111.5308 66° East 494 568 33,000  Level Denver Center
Wed 03:44:25 PM 36.9906 -111.3811 63° Northeast 489 563 33,000  Level Denver Center
Wed 03:45:26 PM 37.0522 -111.2308 63° Northeast 487 560 33,000  Level Denver Center
Wed 03:46:28 PM 37.1253 -111.0500 63° Northeast 486 559 33,000  Level Denver Center
Wed 03:47:30 PM 37.1861 -110.9003 63° Northeast 485 558 33,000  Level Denver Center
Wed 03:48:32 PM 37.2467 -110.7483 63° Northeast 488 562 33,000  Level Denver Center
Wed 03:49:33 PM 37.3083 -110.5964 63° Northeast 491 565 33,000  Level Denver Center
Wed 03:50:35 PM 37.3692 -110.4433 63° Northeast 493 567 33,000  Level Denver Center
Wed 03:51:37 PM 37.4306 -110.2875 64° Northeast 499 574 33,000  Level Denver Center
Wed 03:52:39 PM 37.5042 -110.1031 63° Northeast 508 585 33,000 48 Level Denver Center
Wed 03:53:41 PM 37.5647 -109.9494 64° Northeast 511 588 33,100  Climbing Denver Center
Wed 03:54:42 PM 37.6342 -109.7686 64° Northeast 511 588 33,000 -49 Descending Denver Center
Wed 03:55:44 PM 37.6950 -109.6153 63° Northeast 510 587 33,000  Level Denver Center
Wed 03:56:46 PM 37.7642 -109.4336 64° Northeast 512 589 33,000  Level Denver Center
Wed 03:57:48 PM 37.8236 -109.2786 64° Northeast 512 589 33,000  Level Denver Center
Wed 03:58:50 PM 37.8844 -109.1214 64° Northeast 517 595 33,000 48 Level Denver Center
Wed 03:59:52 PM 37.9544 -108.9361 64° Northeast 521 600 33,100  Climbing Denver Center
Wed 04:00:54 PM 38.0178 -108.7794 63° Northeast 522 601 33,000 -49 Descending Denver Center
Wed 04:01:55 PM 38.0989 -108.5953 61° Northeast 525 604 33,000  Level Denver Center
Wed 04:02:57 PM 38.1658 -108.4428 61° Northeast 519 597 33,000  Level Denver Center
Wed 04:03:59 PM 38.2444 -108.2619 61° Northeast 521 600 33,000 -48 Level Denver Center
Wed 04:05:01 PM 38.3122 -108.1064 61° Northeast 526 605 32,900  Descending Denver Center
Wed 04:06:03 PM 38.3789 -107.9506 61° Northeast 526 605 33,000 97 Climbing Denver Center
Wed 04:07:05 PM 38.4583 -107.7661 61° Northeast 530 610 33,100 -290 Climbing Denver Center
Wed 04:08:07 PM 38.5239 -107.6094 62° Northeast 527 606 32,400 -927 Descending Denver Center
Wed 04:09:08 PM 38.6033 -107.4239 61° Northeast 531 611 31,200 -1,024 Descending Denver Center
Wed 04:10:10 PM 38.6708 -107.2606 62° Northeast 539 620 30,300 -919 Descending Denver Center
Wed 04:11:12 PM 38.7419 -107.0903 62° Northeast 536 617 29,300 -629 Descending Denver Center
Wed 04:12:14 PM 38.8128 -106.9222 62° Northeast 538 619 29,000 -145 Descending Denver Center
Wed 04:13:16 PM 38.8947 -106.7219 62° Northeast 540 621 29,000  Level Denver Center
Wed 04:14:18 PM 38.9625 -106.5586 62° Northeast 542 624 29,000 -927 Level Denver Center
Wed 04:15:19 PM 39.0386 -106.3681 63° Northeast 538 619 27,100 -1,805 Descending Denver Center
Wed 04:16:21 PM 39.1033 -106.2117 62° Northeast 521 600 25,300 -2,032 Descending Denver Center
Wed 04:17:23 PM 39.1672 -106.0514 63° Northeast 504 580 22,900 -1,790 Descending Denver Center
Wed 04:18:25 PM 39.2283 -105.8994 63° Northeast 477 549 21,600 -1,500 Descending Denver Center
Wed 04:19:27 PM 39.2864 -105.7536 63° Northeast 455 524 19,800 -1,805 Descending Denver Center
Wed 04:20:28 PM 39.3489 -105.5969 63° Northeast 423 487 17,900 -1,268 Descending Denver Center
Wed 04:21:30 PM 39.3964 -105.4725 64° Northeast 407 468 17,200 -919 Descending Denver Center
Wed 04:22:32 PM 39.4019 -105.3425 87° East 360 414 16,000 -1,210 Descending Denver Center
Wed 04:23:34 PM 39.4078 -105.2089 87° East 347 399 14,700 -1,113 Descending Denver Center
Wed 04:24:36 PM 39.4131 -105.0928 87° East 323 372 13,700 -823 Descending Denver Center
Wed 04:25:38 PM 39.4181 -104.9778 87° East 301 346 13,000 -683 Descending Denver Center
Wed 04:26:39 PM 39.4264 -104.8869 83° East 258 297 12,300 -780 Descending Denver Center
Wed 04:27:41 PM 39.4467 -104.8003 73° East 255 293 11,400 -1,065 Descending Denver Center
Wed 04:28:43 PM 39.4678 -104.7119 73° East 244 281 10,100 -677 Descending Denver Center
Wed 04:29:45 PM 39.5228 -104.6700 30° Northeast 238 274 10,000 -48 Descending Denver Center
Wed 04:30:47 PM 39.5869 -104.6633 North 217 250 10,000 -339 Level Denver Center
Wed 04:31:49 PM 39.6406 -104.6631 360° North 195 224 9,300 -823 Descending Denver Center
Wed 04:32:51 PM 39.6917 -104.6619 North 182 209 8,300 -1,016 Descending Denver Center
Wed 04:33:53 PM 39.7422 -104.6617 360° North 170 196 7,200 -927 Descending Denver Center
Wed 04:34:54 PM 39.7844 -104.6617 360° North 154 177 6,400 -780 Descending Denver Center
Wed 04:35:56 PM 39.8236 -104.6608 North 134 154 5,600 -774 Descending Denver Center
Wed 04:37:00 PM 39.8500 -104.6667 North  Level FlightAware Approximate

Login

Don't have an account? Register now (free) for customized features, flight alerts, and more!